Time;durP1;ratioP1;P1;durP2;ratioP2;P2;SDS_P1;SDS_P2;PMS_P1;PMS_P2;Temp;Humidity;BMP_temperature;BMP_pressure;BME280_temperature;BME280_humidity;BME280_pressure;Samples;Min_cycle;Max_cycle;Signal;HPM_P1;HPM_P2
2022/05/07 00:01:17;;;;;;;16.58;14.60;;;14.30;92.00;;;;;;5075884;28;20043;-90
2022/05/07 00:03:46;;;;;;;17.52;15.82;;;14.30;92.10;;;;;;5059109;28;20024;-89
2022/05/07 00:06:24;;;;;;;17.10;15.38;;;14.30;92.10;;;;;;5074260;28;20464;-89
2022/05/07 00:08:53;;;;;;;18.70;16.90;;;14.30;92.10;;;;;;5074176;28;20468;-89
2022/05/07 00:11:33;;;;;;;17.60;15.95;;;14.30;92.20;;;;;;5074297;28;20469;-89
2022/05/07 00:14:15;;;;;;;18.20;16.50;;;14.30;92.20;;;;;;5059353;28;20033;-90
2022/05/07 00:19:35;;;;;;;18.65;16.95;;;14.30;92.40;;;;;;5066812;28;20043;-90
2022/05/07 00:22:06;;;;;;;19.05;17.08;;;14.30;92.40;;;;;;5077379;28;20020;-90
2022/05/07 00:24:35;;;;;;;17.55;15.93;;;14.30;92.50;;;;;;5061033;28;20119;-90
2022/05/07 00:27:06;;;;;;;17.35;15.73;;;14.30;92.60;;;;;;5077175;28;20073;-90
2022/05/07 00:29:34;;;;;;;;;;;14.30;92.60;;;;;;5061056;28;20589;-91
2022/05/07 00:32:13;;;;;;;;;;;;;;;;;;;;;
2022/05/07 00:34:48;;;;;;;17.02;15.32;;;14.30;92.50;;;;;;5095385;28;20032;-91
2022/05/07 00:37:24;;;;;;;18.55;16.13;;;14.30;92.60;;;;;;5044205;28;20024;-90
2022/05/07 00:40:02;;;;;;;17.13;15.60;;;14.30;92.60;;;;;;5077212;28;20153;-90
2022/05/07 00:42:47;;;;;;;17.80;16.08;;;14.30;92.60;;;;;;5061412;28;20028;-92
2022/05/07 00:45:33;;;;;;;17.77;16.08;;;14.30;92.70;;;;;;5061515;28;20024;-90
2022/05/07 00:48:06;;;;;;;18.23;16.33;;;14.30;92.70;;;;;;5076177;28;20036;-89
2022/05/07 00:53:33;;;;;;;;;;;;;;;;;;;;;
2022/05/07 00:56:07;;;;;;;18.85;17.05;;;14.20;92.90;;;;;;5095386;28;20016;-91
2022/05/07 00:58:40;;;;;;;18.65;16.85;;;14.20;92.90;;;;;;5080430;28;20024;-89
2022/05/07 01:01:36;;;;;;;18.85;16.58;;;14.20;93.00;;;;;;5081715;28;20059;-90
2022/05/07 01:07:16;;;;;;;18.02;16.23;;;14.20;93.10;;;;;;5085757;28;20455;-90
2022/05/07 01:10:08;;;;;;;16.75;15.05;;;14.20;93.10;;;;;;5084927;28;20124;-90
2022/05/07 01:12:50;;;;;;;17.38;15.68;;;14.20;93.20;;;;;;5117095;23;20086;-88
2022/05/07 01:15:26;;;;;;;16.42;14.82;;;14.20;93.20;;;;;;5018165;28;20035;-87
2022/05/07 01:18:03;;;;;;;16.80;15.20;;;14.20;93.20;;;;;;5001700;28;20094;-87
2022/05/07 01:21:05;;;;;;;;;;;;;;;;;;;;;
2022/05/07 01:24:05;;;;;;;;;;;;;;;;;;;;;
2022/05/07 01:26:36;;;;;;;16.50;14.90;;;14.20;93.30;;;;;;4979384;28;20123;-86
2022/05/07 01:29:19;;;;;;;16.48;14.98;;;14.20;93.30;;;;;;4978157;28;20360;-86
2022/05/07 01:32:04;;;;;;;17.10;15.43;;;14.20;93.30;;;;;;4977770;28;20046;-86
2022/05/07 01:34:59;;;;;;;17.55;15.85;;;14.10;93.30;;;;;;4962505;28;20406;-86
2022/05/07 01:37:42;;;;;;;16.60;15.10;;;14.10;93.30;;;;;;4961681;28;20426;-86
2022/05/07 01:40:28;;;;;;;17.63;15.82;;;14.10;93.40;;;;;;4977560;28;20471;-87
2022/05/07 01:43:05;;;;;;;17.95;16.27;;;14.10;93.40;;;;;;4977548;28;20019;-86
2022/05/07 01:45:56;;;;;;;16.75;15.18;;;14.10;93.50;;;;;;4977425;28;20038;-86
2022/05/07 01:48:45;;;;;;;;;;;;;;;;;;;;;
2022/05/07 01:51:24;;;;;;;;;;;;;;;;;;;;;
2022/05/07 01:53:58;;;;;;;19.05;17.25;;;14.00;93.50;;;;;;4978556;28;20053;-86
2022/05/07 01:56:42;;;;;;;;;;;;;;;;;;;;;
2022/05/07 01:59:20;;;;;;;;;;;;;;;;;;;;;
2022/05/07 02:02:03;;;;;;;19.63;17.83;;;13.90;93.70;;;;;;4977855;28;20027;-86
2022/05/07 02:08:19;;;;;;;20.13;18.13;;;13.90;93.80;;;;;;4976923;28;20410;-87
2022/05/07 02:11:01;;;;;;;19.73;17.83;;;13.80;93.80;;;;;;4976708;28;20098;-86
2022/05/07 02:13:42;;;;;;;;;;;;;;;;;;;;;
2022/05/07 02:16:20;;;;;;;20.40;18.42;;;13.80;93.90;;;;;;4991840;28;20045;-87
2022/05/07 02:19:53;;;;;;;21.27;19.27;;;13.80;93.90;;;;;;4976572;28;20086;-87
2022/05/07 02:22:44;;;;;;;20.70;18.70;;;13.70;94.00;;;;;;4977005;28;20056;-86
2022/05/07 02:25:40;;;;;;;22.27;19.98;;;13.70;94.00;;;;;;4976413;28;20045;-87
2022/05/07 02:28:37;;;;;;;22.00;19.80;;;13.70;94.10;;;;;;4977230;28;20036;-86
2022/05/07 02:34:10;;;;;;;21.58;19.48;;;13.70;94.20;;;;;;4988980;28;20064;-86
2022/05/07 02:36:52;;;;;;;22.52;20.25;;;13.60;94.10;;;;;;4992036;28;20027;-87
2022/05/07 02:39:29;;;;;;;22.10;20.02;;;13.60;94.20;;;;;;4976879;28;20484;-86
2022/05/07 02:42:33;;;;;;;22.60;20.42;;;13.60;94.20;;;;;;4976560;28;20035;-86
2022/05/07 02:51:25;;;;;;;;;;;;;;;;;;;;;
2022/05/07 02:54:27;;;;;;;22.45;20.25;;;13.60;94.30;;;;;;4965597;28;20501;-86
2022/05/07 02:57:24;;;;;;;;;;;13.60;94.40;;;;;;4977461;28;20031;-88
2022/05/07 03:03:38;;;;;;;21.70;19.50;;;13.60;94.40;;;;;;4986488;28;20065;-86
2022/05/07 03:09:34;;;;;;;;;;;;;;;;;;;;;
2022/05/07 03:12:31;;;;;;;;;;;13.60;94.50;;;;;;4977814;28;20043;-86
2022/05/07 03:17:58;;;;;;;19.92;17.90;;;13.50;94.50;;;;;;4975075;28;20026;-86
2022/05/07 03:21:02;;;;;;;20.52;18.65;;;13.50;94.50;;;;;;4958585;28;20042;-86
2022/05/07 03:23:40;;;;;;;21.60;19.50;;;13.50;94.60;;;;;;4975876;28;20105;-86
2022/05/07 03:26:16;;;;;;;;;;;;;;;;;;;;;
2022/05/07 03:29:12;;;;;;;;;;;;;;;;;;;;;
2022/05/07 03:31:50;;;;;;;21.77;19.67;;;13.50;94.70;;;;;;4981935;28;20043;-87
2022/05/07 03:34:57;;;;;;;21.98;19.85;;;13.50;94.70;;;;;;4961960;28;20038;-86
2022/05/07 03:37:26;;;;;;;21.20;19.20;;;13.40;94.70;;;;;;4982980;28;20030;-87
2022/05/07 03:40:02;;;;;;;21.55;19.30;;;13.40;94.70;;;;;;4942696;28;20070;-86
2022/05/07 03:42:38;;;;;;;;;;;;;;;;;;;;;
2022/05/07 03:45:13;;;;;;;21.08;19.08;;;13.50;94.80;;;;;;4975842;28;20029;-86
2022/05/07 03:47:54;;;;;;;20.98;18.80;;;13.50;94.90;;;;;;4975289;28;20420;-86
2022/05/07 03:50:23;;;;;;;21.50;19.50;;;13.50;94.80;;;;;;4965938;28;20026;-86
2022/05/07 03:55:55;;;;;;;21.33;19.25;;;13.50;94.80;;;;;;4995805;28;20050;-87
2022/05/07 03:58:46;;;;;;;22.88;20.67;;;13.50;94.90;;;;;;4978235;28;20025;-86
2022/05/07 04:01:20;;;;;;;21.25;19.15;;;13.50;94.90;;;;;;4962250;28;20034;-86
2022/05/07 04:04:07;;;;;;;22.20;20.02;;;13.50;94.90;;;;;;4978434;28;20039;-86
2022/05/07 04:06:47;;;;;;;;;;;;;;;;;;;;;
2022/05/07 04:09:33;;;;;;;20.80;18.70;;;13.50;94.90;;;;;;4979398;28;20030;-86
2022/05/07 04:11:59;;;;;;;20.85;18.85;;;13.50;95.00;;;;;;4983651;28;20042;-86
2022/05/07 04:14:41;;;;;;;21.63;19.52;;;13.50;95.00;;;;;;4993724;28;20475;-86
2022/05/07 04:20:29;;;;;;;;;;;;;;;;;;;;;
2022/05/07 04:23:04;;;;;;;20.65;18.63;;;13.50;95.10;;;;;;4995117;28;20018;-86
2022/05/07 04:25:46;;;;;;;;;;;;;;;;;;;;;
2022/05/07 04:28:24;;;;;;;;;;;;;;;;;;;;;
2022/05/07 04:31:16;;;;;;;21.85;19.75;;;13.50;95.20;;;;;;4995137;28;20026;-86
2022/05/07 04:33:48;;;;;;;;;;;;;;;;;;;;;
2022/05/07 04:36:44;;;;;;;;;;;;;;;;;;;;;
2022/05/07 04:39:18;;;;;;;22.55;20.42;;;13.60;95.40;;;;;;4997795;28;20547;-87
2022/05/07 04:42:26;;;;;;;22.55;20.25;;;13.60;95.40;;;;;;4975639;28;20031;-86
2022/05/07 04:45:02;;;;;;;21.05;19.05;;;13.60;95.50;;;;;;4995075;28;20035;-86
2022/05/07 04:47:33;;;;;;;22.02;19.92;;;13.60;95.50;;;;;;4986766;28;20027;-86
2022/05/07 04:50:22;;;;;;;23.65;19.65;;;13.60;95.60;;;;;;4980319;28;20110;-86
2022/05/07 04:53:11;;;;;;;21.45;19.27;;;13.70;95.60;;;;;;4979927;28;20050;-87
2022/05/07 04:55:57;;;;;;;22.40;19.92;;;13.70;95.60;;;;;;4961673;28;20051;-87
2022/05/07 04:59:04;;;;;;;;;;;;;;;;;;;;;
2022/05/07 05:02:00;;;;;;;21.58;19.50;;;13.80;95.70;;;;;;4962089;28;20100;-86
2022/05/07 05:04:56;;;;;;;;;;;;;;;;;;;;;
2022/05/07 05:07:35;;;;;;;22.88;20.48;;;13.80;95.80;;;;;;4994636;28;20027;-86
2022/05/07 05:10:24;;;;;;;20.85;18.80;;;13.90;95.80;;;;;;4992816;28;20035;-86
2022/05/07 05:13:01;;;;;;;22.27;20.10;;;13.80;95.70;;;;;;4992891;28;20046;-86
2022/05/07 05:15:37;;;;;;;22.85;20.45;;;13.90;95.80;;;;;;4977746;28;20031;-87
2022/05/07 05:18:31;;;;;;;22.67;20.52;;;14.00;95.80;;;;;;4994292;28;20474;-86
2022/05/07 05:21:18;;;;;;;21.38;19.38;;;14.00;95.90;;;;;;4956767;28;20077;-88
2022/05/07 05:24:12;;;;;;;22.88;20.48;;;14.10;95.80;;;;;;4948774;28;20463;-87
2022/05/07 05:26:48;;;;;;;22.73;20.40;;;14.10;95.80;;;;;;4992818;28;20113;-86
2022/05/07 05:29:36;;;;;;;;;;;;;;;;;;;;;
2022/05/07 05:32:17;;;;;;;22.42;20.17;;;14.20;95.90;;;;;;4978231;28;20048;-86
2022/05/07 05:34:49;;;;;;;21.73;19.08;;;14.30;95.90;;;;;;4962136;28;20463;-86
2022/05/07 05:37:38;;;;;;;22.17;19.92;;;14.30;95.80;;;;;;4993755;28;20054;-87
2022/05/07 05:40:28;;;;;;;22.08;19.77;;;14.40;95.90;;;;;;4976181;28;20030;-86
2022/05/07 05:43:06;;;;;;;22.40;20.15;;;14.40;95.90;;;;;;4961185;28;20029;-86
2022/05/07 05:45:34;;;;;;;21.92;19.77;;;14.50;95.90;;;;;;4960404;28;20033;-87
2022/05/07 05:48:06;;;;;;;20.75;18.65;;;14.60;95.90;;;;;;4976713;28;20073;-88
2022/05/07 05:50:45;;;;;;;21.38;19.27;;;14.60;95.90;;;;;;4961128;28;20054;-87
2022/05/07 05:53:16;;;;;;;22.45;20.20;;;14.60;95.80;;;;;;4976836;28;20038;-87
2022/05/07 05:55:52;;;;;;;21.70;19.10;;;14.70;95.80;;;;;;4980010;28;20485;-87
2022/05/07 05:58:48;;;;;;;21.20;18.98;;;14.70;95.80;;;;;;4945611;28;20027;-87
2022/05/07 06:01:21;;;;;;;22.98;20.67;;;14.80;95.80;;;;;;4976548;28;20034;-87
2022/05/07 06:04:18;;;;;;;22.52;20.23;;;14.80;95.80;;;;;;4960729;28;20032;-86
2022/05/07 06:07:11;;;;;;;21.90;19.70;;;14.90;95.80;;;;;;4979324;28;20034;-86
2022/05/07 06:10:11;;;;;;;23.67;19.80;;;14.90;95.80;;;;;;4996320;28;20026;-87
2022/05/07 06:13:33;;;;;;;22.25;19.95;;;15.00;95.80;;;;;;4967479;28;20068;-88
2022/05/07 06:23:02;;;;;;;;;;;;;;;;;;;;;
2022/05/07 06:29:17;;;;;;;21.80;19.60;;;15.30;95.50;;;;;;4971301;28;20448;-86
2022/05/07 06:32:02;;;;;;;23.83;21.17;;;15.30;95.40;;;;;;5002812;28;20093;-87
2022/05/07 06:34:33;;;;;;;22.20;19.83;;;15.30;95.30;;;;;;4989095;28;20524;-87
2022/05/07 06:37:33;;;;;;;23.92;21.58;;;15.40;95.30;;;;;;4970856;28;20027;-87
2022/05/07 06:41:01;;;;;;;;;;;;;;;;;;;;;
2022/05/07 06:44:07;;;;;;;;;;;;;;;;;;;;;
2022/05/07 06:50:03;;;;;;;19.52;17.38;;;15.50;95.10;;;;;;4976970;28;20066;-87
2022/05/07 06:56:15;;;;;;;15.70;14.10;;;15.60;94.90;;;;;;4988737;28;20382;-87
2022/05/07 06:59:33;;;;;;;;;;;;;;;;;;;;;
2022/05/07 07:06:03;;;;;;;;;;;;;;;;;;;;;
2022/05/07 07:11:51;;;;;;;14.70;13.20;;;16.00;94.40;;;;;;4951205;28;20043;-87
2022/05/07 07:25:51;;;;;;;15.80;13.43;;;16.40;93.90;;;;;;4916530;29;20508;-89
2022/05/07 07:29:08;;;;;;;;;;;;;;;;;;;;;
2022/05/07 07:31:54;;;;;;;14.15;12.40;;;16.50;93.70;;;;;;4954894;29;20060;-88
2022/05/07 07:37:57;;;;;;;;;;;;;;;;;;;;;
2022/05/07 07:40:51;;;;;;;15.05;11.52;;;16.90;93.50;;;;;;4975638;28;20374;-88
2022/05/07 07:50:35;;;;;;;;;;;;;;;;;;;;;
2022/05/07 07:53:44;;;;;;;;;;;;;;;;;;;;;
2022/05/07 07:56:42;;;;;;;14.25;11.35;;;17.30;92.90;;;;;;4953245;29;20565;-88
2022/05/07 08:02:52;;;;;;;;;;;;;;;;;;;;;
2022/05/07 08:15:58;;;;;;;13.30;10.88;;;17.60;92.30;;;;;;4886033;29;20061;-88
2022/05/07 08:21:47;;;;;;;15.07;10.93;;;17.80;92.20;;;;;;4973145;28;20162;-87
2022/05/07 08:24:36;;;;;;;14.85;11.20;;;17.90;92.10;;;;;;4974284;29;20031;-85
2022/05/07 08:30:25;;;;;;;15.05;11.52;;;18.10;91.80;;;;;;4940104;29;20046;-87
2022/05/07 08:40:19;;;;;;;;;;;;;;;;;;;;;
2022/05/07 08:43:41;;;;;;;;;;;;;;;;;;;;;
2022/05/07 08:46:59;;;;;;;13.80;9.73;;;18.40;91.00;;;;;;4955887;29;20061;-88
2022/05/07 08:49:56;;;;;;;11.82;9.40;;;18.40;90.70;;;;;;4929705;29;20043;-87
2022/05/07 08:52:58;;;;;;;11.65;8.60;;;18.50;90.60;;;;;;4931030;29;20058;-88
2022/05/07 08:58:51;;;;;;;10.25;7.40;;;18.70;90.30;;;;;;4949009;29;20523;-87
2022/05/07 09:01:43;;;;;;;;;;;;;;;;;;;;;
2022/05/07 09:04:47;;;;;;;;;;;;;;;;;;;;;
2022/05/07 09:07:49;;;;;;;;;;;;;;;;;;;;;
2022/05/07 09:10:52;;;;;;;10.85;7.28;;;19.00;89.80;;;;;;4936728;29;20031;-89
2022/05/07 09:13:41;;;;;;;10.40;7.70;;;19.00;89.80;;;;;;4952430;28;20207;-88
2022/05/07 09:16:29;;;;;;;11.13;8.50;;;19.10;89.40;;;;;;4940883;28;20043;-88
2022/05/07 09:24:11;;;;;;;10.95;7.40;;;19.20;88.90;;;;;;4927261;29;20453;-88
2022/05/07 09:26:55;;;;;;;;;;;;;;;;;;;;;
2022/05/07 09:29:52;;;;;;;;;;;;;;;;;;;;;
2022/05/07 09:32:33;;;;;;;10.55;7.53;;;19.40;88.40;;;;;;4994659;28;20386;-88
2022/05/07 09:40:47;;;;;;;12.35;9.27;;;19.60;88.10;;;;;;4986998;28;20471;-88
2022/05/07 09:43:56;;;;;;;11.82;8.43;;;19.70;87.90;;;;;;4965270;28;20038;-87
2022/05/07 09:47:00;;;;;;;11.00;8.73;;;19.80;87.70;;;;;;4981004;28;20026;-90
2022/05/07 09:59:31;;;;;;;;;;;;;;;;;;;;;
2022/05/07 10:02:35;;;;;;;9.38;6.57;;;20.10;86.20;;;;;;4969366;28;20148;-91
2022/05/07 10:05:41;;;;;;;7.97;6.32;;;20.10;86.20;;;;;;4996797;28;20026;-88
2022/05/07 10:08:57;;;;;;;;;;;;;;;;;;;;;
2022/05/07 10:11:39;;;;;;;10.52;6.43;;;20.30;85.20;;;;;;4997962;28;20402;-88
2022/05/07 10:14:56;;;;;;;;;;;;;;;;;;;;;
2022/05/07 10:18:17;;;;;;;;;;;;;;;;;;;;;
2022/05/07 10:24:44;;;;;;;;;;;;;;;;;;;;;
2022/05/07 10:35:26;;;;;;;10.82;7.32;;;20.60;80.10;;;;;;4818719;29;20044;-88
2022/05/07 10:38:35;;;;;;;;;;;;;;;;;;;;;
2022/05/07 10:47:52;;;;;;;;;;;;;;;;;;;;;
2022/05/07 10:51:10;;;;;;;9.63;7.22;;;20.80;80.00;;;;;;4935848;29;20120;-88
2022/05/07 10:54:23;;;;;;;;;;;;;;;;;;;;;
2022/05/07 11:01:02;;;;;;;;;;;;;;;;;;;;;
2022/05/07 11:04:23;;;;;;;;;;;;;;;;;;;;;
2022/05/07 11:10:37;;;;;;;8.25;6.60;;;21.50;78.40;;;;;;4976325;28;20121;-88
2022/05/07 11:13:45;;;;;;;9.77;7.55;;;21.70;78.10;;;;;;4970037;28;20050;-89
2022/05/07 11:16:52;;;;;;;9.50;6.40;;;21.80;77.60;;;;;;4970213;28;20057;-88
2022/05/07 11:25:46;;;;;;;;;;;;;;;;;;;;;
2022/05/07 11:31:55;;;;;;;9.00;6.13;;;22.20;77.90;;;;;;4981263;28;20047;-90
2022/05/07 11:35:04;;;;;;;9.13;6.85;;;22.20;77.30;;;;;;4911453;28;20039;-88
2022/05/07 11:37:58;;;;;;;7.82;6.20;;;22.30;76.90;;;;;;4900112;28;20093;-88
2022/05/07 11:54:02;;;;;;;;;;;;;;;;;;;;;
2022/05/07 11:57:07;;;;;;;;;;;;;;;;;;;;;
2022/05/07 12:00:07;;;;;;;;;;;;;;;;;;;;;
2022/05/07 12:03:16;;;;;;;;;;;;;;;;;;;;;
2022/05/07 12:09:26;;;;;;;;;;;;;;;;;;;;;
2022/05/07 12:18:47;;;;;;;8.98;6.00;;;21.00;76.80;;;;;;5018446;28;20072;-88
2022/05/07 12:30:38;;;;;;;7.15;4.95;;;20.50;77.50;;;;;;5018094;28;20044;-89
2022/05/07 12:33:07;;;;;;;;;;;20.50;78.20;;;;;;5002649;28;20091;-87
2022/05/07 12:35:46;;;;;;;8.18;5.05;;;20.40;78.50;;;;;;5000190;28;19914;-88
2022/05/07 12:39:11;;;;;;;8.35;5.68;;;20.40;79.00;;;;;;4972617;28;20033;-88
2022/05/07 12:42:22;;;;;;;6.20;4.97;;;20.30;79.70;;;;;;4979129;28;20045;-89
2022/05/07 12:45:16;;;;;;;8.70;5.75;;;20.30;79.60;;;;;;4993728;28;20051;-88
2022/05/07 12:47:57;;;;;;;9.25;5.45;;;20.20;79.70;;;;;;4977258;28;20042;-88
2022/05/07 12:50:22;;;;;;;;;;;20.20;80.10;;;;;;4979081;28;20058;-88
2022/05/07 12:53:36;;;;;;;;;;;;;;;;;;;;;
2022/05/07 12:56:44;;;;;;;7.57;5.22;;;20.00;80.40;;;;;;4998312;28;20061;-88
2022/05/07 12:59:20;;;;;;;9.48;5.75;;;19.90;80.80;;;;;;4968656;28;20038;-88
2022/05/07 13:04:57;;;;;;;8.70;6.90;;;19.90;81.00;;;;;;4990656;28;20022;-88
2022/05/07 13:08:14;;;;;;;7.72;5.57;;;19.90;81.20;;;;;;4983551;28;20018;-89
2022/05/07 13:12:03;;;;;;;;;;;;;;;;;;;;;
2022/05/07 13:14:40;;;;;;;;;;;;;;;;;;;;;
2022/05/07 13:17:41;;;;;;;6.65;5.22;;;19.90;80.10;;;;;;5000574;28;20030;-88
2022/05/07 13:20:49;;;;;;;9.23;4.95;;;20.10;79.90;;;;;;4983433;28;20034;-88
2022/05/07 13:23:41;;;;;;;5.95;4.80;;;20.10;79.30;;;;;;4926955;28;20143;-88
2022/05/07 13:29:35;;;;;;;9.82;6.97;;;20.30;80.40;;;;;;4986746;28;20039;-88
2022/05/07 13:32:22;;;;;;;7.72;6.60;;;20.40;80.90;;;;;;4983009;28;20038;-88
2022/05/07 13:35:18;;;;;;;7.88;6.38;;;20.40;80.90;;;;;;4966659;28;20023;-90
2022/05/07 13:38:14;;;;;;;;;;;;;;;;;;;;;
2022/05/07 13:41:22;;;;;;;;;;;;;;;;;;;;;
2022/05/07 13:47:34;;;;;;;6.10;5.18;;;20.70;80.40;;;;;;4999095;28;20488;-88
2022/05/07 13:53:27;;;;;;;5.38;3.30;;;20.90;79.00;;;;;;4930475;28;20051;-88
2022/05/07 13:56:17;;;;;;;;;;;;;;;;;;;;;
2022/05/07 13:58:53;;;;;;;5.30;3.15;;;20.90;77.60;;;;;;4980886;28;20472;-88
2022/05/07 14:01:27;;;;;;;5.22;3.10;;;20.90;76.30;;;;;;4968573;28;20046;-88
2022/05/07 14:04:03;;;;;;;4.97;3.42;;;20.90;75.70;;;;;;4981354;28;20061;-87
2022/05/07 14:10:43;;;;;;;;;;;;;;;;;;;;;
2022/05/07 14:13:49;;;;;;;;;;;;;;;;;;;;;
2022/05/07 14:16:37;;;;;;;3.97;2.92;;;20.90;75.40;;;;;;4976954;28;20109;-88
2022/05/07 14:22:47;;;;;;;;;;;;;;;;;;;;;
2022/05/07 14:26:06;;;;;;;;;;;;;;;;;;;;;
2022/05/07 14:28:50;;;;;;;2.10;1.45;;;21.00;74.50;;;;;;4977320;29;20055;-88
2022/05/07 14:35:09;;;;;;;1.60;1.27;;;20.90;73.60;;;;;;4987306;28;20035;-87
2022/05/07 14:37:53;;;;;;;1.42;1.15;;;20.80;73.30;;;;;;4964524;28;20514;-88
2022/05/07 14:40:50;;;;;;;1.77;1.65;;;20.80;73.70;;;;;;4962504;28;20027;-88
2022/05/07 14:44:18;;;;;;;;;;;;;;;;;;;;;
2022/05/07 14:47:05;;;;;;;;;;;;;;;;;;;;;
2022/05/07 14:53:13;;;;;;;2.55;1.80;;;20.60;74.00;;;;;;4968888;28;20043;-88
2022/05/07 14:55:52;;;;;;;1.75;1.42;;;20.50;74.20;;;;;;4960498;28;20036;-88
2022/05/07 15:04:58;;;;;;;2.97;2.10;;;20.40;75.60;;;;;;4905821;28;20491;-88
2022/05/07 15:10:53;;;;;;;4.20;2.20;;;20.30;76.40;;;;;;4955408;29;20130;-88
2022/05/07 15:13:47;;;;;;;3.83;2.67;;;20.30;76.70;;;;;;4955040;29;20039;-88
2022/05/07 15:19:31;;;;;;;;;;;;;;;;;;;;;
2022/05/07 15:22:33;;;;;;;11.07;5.35;;;20.20;78.10;;;;;;4940402;29;20043;-88
2022/05/07 15:25:18;;;;;;;10.95;6.93;;;20.20;79.50;;;;;;4913131;29;20130;-89
2022/05/07 15:28:21;;;;;;;;;;;;;;;;;;;;;
2022/05/07 15:31:19;;;;;;;9.35;7.07;;;20.10;81.80;;;;;;4930327;29;20044;-89
2022/05/07 15:37:21;;;;;;;12.57;9.27;;;20.00;84.00;;;;;;4942352;29;20050;-89
2022/05/07 15:40:27;;;;;;;10.77;7.68;;;19.90;84.90;;;;;;4940356;29;20484;-89
2022/05/07 15:43:52;;;;;;;;;;;;;;;;;;;;;
2022/05/07 15:47:10;;;;;;;8.32;6.85;;;19.80;85.80;;;;;;4945669;28;20050;-90
2022/05/07 15:50:02;;;;;;;8.57;6.90;;;19.80;85.90;;;;;;4974171;28;20039;-88
2022/05/07 15:53:04;;;;;;;;;;;;;;;;;;;;;
2022/05/07 15:56:14;;;;;;;7.57;6.53;;;19.80;85.60;;;;;;4975097;28;20045;-89
2022/05/07 15:58:47;;;;;;;10.75;7.10;;;19.90;85.70;;;;;;4960252;28;20043;-88
2022/05/07 16:01:26;;;;;;;7.15;5.80;;;19.90;85.70;;;;;;4958815;28;20043;-88
2022/05/07 16:09:50;;;;;;;10.70;9.10;;;19.90;85.50;;;;;;4965063;28;20129;-88
2022/05/07 16:12:22;;;;;;;12.57;10.68;;;20.00;85.30;;;;;;4959707;28;20066;-88
2022/05/07 16:15:03;;;;;;;;;;;;;;;;;;;;;
2022/05/07 16:18:00;;;;;;;;;;;;;;;;;;;;;
2022/05/07 16:27:28;;;;;;;9.77;7.13;;;19.90;85.50;;;;;;4994616;28;20066;-87
2022/05/07 16:30:24;;;;;;;;;;;;;;;;;;;;;
2022/05/07 16:33:46;;;;;;;;;;;;;;;;;;;;;
2022/05/07 16:36:38;;;;;;;9.23;6.68;;;19.90;85.30;;;;;;4967769;28;20042;-88
2022/05/07 16:40:03;;;;;;;;;;;;;;;;;;;;;
2022/05/07 16:46:36;;;;;;;;;;;;;;;;;;;;;
2022/05/07 16:49:30;;;;;;;6.63;5.47;;;19.70;82.90;;;;;;4974257;28;20034;-88
2022/05/07 16:58:45;;;;;;;5.70;4.22;;;19.60;82.80;;;;;;4946706;28;20063;-88
2022/05/07 17:01:56;;;;;;;;;;;;;;;;;;;;;
2022/05/07 17:05:05;;;;;;;;;;;;;;;;;;;;;
2022/05/07 17:08:13;;;;;;;;;;;;;;;;;;;;;
2022/05/07 17:14:31;;;;;;;;;;;;;;;;;;;;;
2022/05/07 17:17:26;;;;;;;5.65;4.15;;;19.30;80.70;;;;;;4981287;28;20036;-88
2022/05/07 17:20:01;;;;;;;6.07;4.57;;;19.30;80.70;;;;;;4961321;28;20471;-88
2022/05/07 17:22:29;;;;;;;4.78;4.03;;;19.30;80.50;;;;;;4960894;28;20379;-88
2022/05/07 17:25:27;;;;;;;5.60;4.90;;;19.30;80.60;;;;;;4957037;28;20475;-88
2022/05/07 17:28:29;;;;;;;;;;;;;;;;;;;;;
2022/05/07 17:31:05;;;;;;;7.38;5.45;;;19.20;80.50;;;;;;4959135;28;20035;-86
2022/05/07 17:34:04;;;;;;;;;;;;;;;;;;;;;
2022/05/07 17:37:01;;;;;;;10.32;7.28;;;19.10;81.00;;;;;;4985788;28;20038;-88
2022/05/07 17:40:08;;;;;;;;;;;;;;;;;;;;;
2022/05/07 17:42:55;;;;;;;;;;;;;;;;;;;;;
2022/05/07 17:45:32;;;;;;;10.38;7.45;;;18.90;81.10;;;;;;4983288;28;20026;-89
2022/05/07 17:51:10;;;;;;;7.65;6.38;;;18.90;81.30;;;;;;4996913;28;20042;-88
2022/05/07 17:54:00;;;;;;;;;;;;;;;;;;;;;
2022/05/07 17:57:03;;;;;;;;;;;;;;;;;;;;;
2022/05/07 18:06:24;;;;;;;8.85;6.25;;;18.80;81.80;;;;;;4993593;28;20034;-88
2022/05/07 18:12:10;;;;;;;9.38;7.60;;;18.80;82.40;;;;;;4969371;28;20073;-88
2022/05/07 18:14:44;;;;;;;9.30;7.13;;;18.80;82.80;;;;;;4976868;28;20145;-88
2022/05/07 18:20:54;;;;;;;;;;;;;;;;;;;;;
2022/05/07 18:23:36;;;;;;;;;;;;;;;;;;;;;
2022/05/07 18:26:38;;;;;;;9.15;6.85;;;18.70;83.50;;;;;;4980531;29;20047;-88
2022/05/07 18:29:27;;;;;;;10.10;6.93;;;18.70;83.60;;;;;;4978417;28;20031;-88
2022/05/07 18:32:11;;;;;;;;;;;;;;;;;;;;;
2022/05/07 18:35:23;;;;;;;9.90;7.30;;;18.60;83.20;;;;;;4977832;28;20041;-87
2022/05/07 18:43:52;;;;;;;;;;;;;;;;;;;;;
2022/05/07 18:47:18;;;;;;;7.85;6.28;;;18.40;83.60;;;;;;4977127;28;20029;-88
2022/05/07 18:49:53;;;;;;;7.82;6.35;;;18.40;83.70;;;;;;4975782;28;20029;-88
2022/05/07 18:59:26;;;;;;;6.97;5.35;;;18.30;83.40;;;;;;4954411;28;20094;-88
2022/05/07 19:02:27;;;;;;;5.65;4.50;;;18.20;83.40;;;;;;4974317;28;20035;-87
2022/05/07 19:05:17;;;;;;;6.20;5.07;;;18.20;83.50;;;;;;4962357;28;20423;-87
2022/05/07 19:08:19;;;;;;;;;;;;;;;;;;;;;
2022/05/07 19:11:25;;;;;;;;;;;;;;;;;;;;;
2022/05/07 19:14:11;;;;;;;;;;;;;;;;;;;;;
2022/05/07 19:17:01;;;;;;;;;;;;;;;;;;;;;
2022/05/07 19:19:47;;;;;;;7.15;4.30;;;17.80;83.70;;;;;;4980677;28;20030;-88
2022/05/07 19:22:47;;;;;;;;;;;;;;;;;;;;;
2022/05/07 19:25:50;;;;;;;;;;;;;;;;;;;;;
2022/05/07 19:28:38;;;;;;;;;;;;;;;;;;;;;
2022/05/07 19:31:48;;;;;;;4.47;3.83;;;17.70;84.40;;;;;;4995220;28;20026;-88
2022/05/07 19:34:31;;;;;;;4.25;3.60;;;17.60;84.70;;;;;;4976047;28;20471;-87
2022/05/07 19:37:40;;;;;;;8.02;4.43;;;17.60;84.80;;;;;;4974741;28;20035;-88
2022/05/07 19:41:02;;;;;;;;;;;;;;;;;;;;;
2022/05/07 19:46:23;;;;;;;5.45;4.30;;;17.40;85.30;;;;;;4984393;28;20113;-88
2022/05/07 19:49:15;;;;;;;6.60;3.95;;;17.40;85.50;;;;;;4978288;28;20026;-88
2022/05/07 19:55:20;;;;;;;;;;;;;;;;;;;;;
2022/05/07 19:57:49;;;;;;;6.18;4.68;;;17.30;86.10;;;;;;4994927;28;20026;-88
2022/05/07 20:00:40;;;;;;;5.32;4.43;;;17.20;86.50;;;;;;4978624;28;20379;-88
2022/05/07 20:03:30;;;;;;;7.85;5.10;;;17.10;86.90;;;;;;4995136;28;20066;-88
2022/05/07 20:12:36;;;;;;;;;;;;;;;;;;;;;
2022/05/07 20:19:07;;;;;;;8.70;4.40;;;16.70;87.50;;;;;;4940808;28;20027;-88
2022/05/07 20:21:56;;;;;;;5.05;3.80;;;16.60;87.70;;;;;;4938238;29;20048;-89
2022/05/07 20:24:43;;;;;;;5.00;3.63;;;16.60;87.80;;;;;;4920519;29;20051;-87
2022/05/07 20:27:36;;;;;;;;;;;;;;;;;;;;;
2022/05/07 20:30:36;;;;;;;5.47;3.70;;;16.40;87.90;;;;;;4917019;29;20036;-87
2022/05/07 20:33:45;;;;;;;;;;;;;;;;;;;;;
2022/05/07 20:46:55;;;;;;;;;;;;;;;;;;;;;
2022/05/07 20:53:40;;;;;;;;;;;;;;;;;;;;;
2022/05/07 20:56:54;;;;;;;2.95;2.65;;;15.90;87.90;;;;;;4888316;29;20108;-88
2022/05/07 21:00:12;;;;;;;;;;;;;;;;;;;;;
2022/05/07 21:03:25;;;;;;;;;;;;;;;;;;;;;
2022/05/07 21:06:01;;;;;;;3.20;2.28;;;15.70;87.10;;;;;;4998371;28;20035;-88
2022/05/07 21:09:09;;;;;;;2.85;2.10;;;15.60;87.10;;;;;;4986846;28;20042;-88
2022/05/07 21:12:05;;;;;;;3.63;2.28;;;15.70;87.30;;;;;;5014631;28;20027;-88
2022/05/07 21:17:40;;;;;;;;;;;;;;;;;;;;;
2022/05/07 21:26:56;;;;;;;3.40;2.25;;;15.40;86.20;;;;;;4960293;28;20015;-87
2022/05/07 21:29:50;;;;;;;4.20;2.30;;;15.30;86.00;;;;;;5002830;28;20019;-88
2022/05/07 21:32:47;;;;;;;5.68;2.20;;;15.30;85.20;;;;;;4986208;28;20029;-88
2022/05/07 21:36:05;;;;;;;3.95;2.65;;;15.20;85.00;;;;;;5001476;28;20039;-87
2022/05/07 21:39:05;;;;;;;6.10;2.90;;;15.10;85.20;;;;;;5001999;28;20015;-87
2022/05/07 21:42:15;;;;;;;8.32;3.28;;;15.00;85.20;;;;;;4999648;28;20034;-88
2022/05/07 21:45:07;;;;;;;5.68;3.00;;;14.90;85.50;;;;;;4986945;28;20035;-89
2022/05/07 21:48:02;;;;;;;6.30;3.15;;;14.80;85.80;;;;;;4994428;28;20027;-87
2022/05/07 21:53:55;;;;;;;;;;;;;;;;;;;;;
2022/05/07 21:57:13;;;;;;;11.88;3.97;;;14.60;86.90;;;;;;4977152;28;20090;-88
2022/05/07 22:04:02;;;;;;;6.15;3.67;;;14.40;88.40;;;;;;4933924;28;20047;-87
2022/05/07 22:06:52;;;;;;;;;;;;;;;;;;;;;
2022/05/07 22:13:06;;;;;;;6.05;4.38;;;14.40;88.80;;;;;;4981504;28;20565;-88
2022/05/07 22:19:02;;;;;;;8.02;4.70;;;14.40;89.60;;;;;;4964684;28;20042;-88
2022/05/07 22:21:59;;;;;;;8.80;4.90;;;14.30;90.00;;;;;;4977605;28;20042;-88
2022/05/07 22:24:49;;;;;;;7.57;5.00;;;14.30;90.10;;;;;;4979823;28;20110;-88
2022/05/07 22:27:19;;;;;;;9.40;5.03;;;14.30;90.30;;;;;;4978108;28;20035;-88
2022/05/07 22:30:48;;;;;;;;;;;;;;;;;;;;;
2022/05/07 22:33:29;;;;;;;;;;;;;;;;;;;;;
2022/05/07 22:36:45;;;;;;;;;;;;;;;;;;;;;
2022/05/07 22:39:23;;;;;;;8.68;5.45;;;14.10;90.70;;;;;;4952602;28;20035;-88
2022/05/07 22:48:39;;;;;;;9.13;5.20;;;14.10;91.00;;;;;;4898750;29;20068;-88
2022/05/07 22:51:15;;;;;;;9.27;5.78;;;14.00;91.00;;;;;;4898770;29;20041;-88
2022/05/07 22:53:49;;;;;;;11.35;5.88;;;14.00;91.10;;;;;;4937944;28;20142;-88
2022/05/07 22:56:20;;;;;;;9.80;5.70;;;13.90;91.20;;;;;;4976280;28;20027;-88
2022/05/07 22:58:46;;;;;;;;;;;13.80;91.40;;;;;;4977144;28;20027;-88
2022/05/07 23:02:03;;;;;;;10.52;5.95;;;13.80;91.40;;;;;;4976447;28;19906;-88
2022/05/07 23:12:06;;;;;;;;;;;;;;;;;;;;;
2022/05/07 23:15:23;;;;;;;12.82;6.70;;;13.80;91.70;;;;;;4974347;28;20050;-88